Time;durP1;ratioP1;P1;durP2;ratioP2;P2;SDS_P1;SDS_P2;PMS_P1;PMS_P2;Temp;Humidity;BMP_temperature;BMP_pressure;BME280_temperature;BME280_humidity;BME280_pressure;Samples;Min_cycle;Max_cycle;Signal;HPM_P1;HPM_P2
2023/08/16 00:01:13;;;;;;;19.70;14.10;;;;;;;24.66;67.22;99946.36;79230;1302;3013670;-61
2023/08/16 00:03:42;;;;;;;22.80;13.90;;;;;;;25.26;65.24;99947.52;78795;1298;3011299;-61
2023/08/16 00:06:11;;;;;;;20.80;14.80;;;;;;;25.40;64.63;99946.55;79293;1299;3013040;-62
2023/08/16 00:08:40;;;;;;;22.70;15.90;;;;;;;25.32;64.33;99950.34;78704;1300;3011660;-61
2023/08/16 00:11:07;;;;;;;23.00;16.90;;;;;;;25.20;64.53;99948.15;79383;1299;3013776;-62
2023/08/16 00:13:34;;;;;;;23.90;17.40;;;;;;;25.09;64.63;99953.72;79246;1301;3011670;-62
2023/08/16 00:16:02;;;;;;;25.10;18.00;;;;;;;24.95;64.87;99951.67;78007;1301;3026587;-63
2023/08/16 00:18:29;;;;;;;31.60;19.00;;;;;;;24.82;65.18;99950.86;79467;1300;3013447;-60
2023/08/16 00:20:56;;;;;;;36.60;22.10;;;;;;;24.69;65.88;99951.20;79296;1301;3011587;-60
2023/08/16 00:23:24;;;;;;;39.80;23.70;;;;;;;24.57;66.36;99951.98;78018;1310;3050045;-62
2023/08/16 00:25:51;;;;;;;45.70;28.10;;;;;;;24.45;66.88;99952.65;79175;1298;3013683;-59
2023/08/16 00:28:17;;;;;;;51.00;29.40;;;;;;;24.36;67.21;99952.21;79337;1301;3011565;-61
2023/08/16 00:30:45;;;;;;;51.30;29.30;;;;;;;24.27;67.43;99958.52;77976;1300;3028182;-61
2023/08/16 00:33:13;;;;;;;49.50;24.40;;;;;;;24.18;67.94;99958.89;79344;1300;3013674;-62
2023/08/16 00:35:39;;;;;;;33.20;19.10;;;;;;;24.12;68.06;99959.33;79220;1301;3012002;-63
2023/08/16 00:38:07;;;;;;;26.50;17.20;;;;;;;24.02;68.40;99959.64;77934;1300;3049294;-59
2023/08/16 00:40:34;;;;;;;24.40;18.40;;;;;;;23.96;68.83;99963.70;79278;1298;3020877;-61
2023/08/16 00:43:00;;;;;;;23.00;17.30;;;;;;;23.89;69.29;99963.02;79241;1311;3011886;-60
2023/08/16 00:45:28;;;;;;;18.80;12.50;;;;;;;23.81;69.62;99960.32;78112;1302;3028686;-59
2023/08/16 00:47:55;;;;;;;10.10;6.80;;;;;;;23.73;70.12;99960.64;79273;1302;3012914;-62
2023/08/16 00:50:24;;;;;;;11.50;7.10;;;;;;;24.20;68.68;99957.69;79228;1300;3012229;-63
2023/08/16 00:52:51;;;;;;;12.10;7.00;;;;;;;24.58;67.05;99961.35;77947;1303;3050322;-61
2023/08/16 00:55:18;;;;;;;12.20;6.90;;;;;;;24.58;66.97;99964.41;79212;1301;3013362;-62
2023/08/16 00:57:45;;;;;;;12.30;6.60;;;;;;;24.43;67.42;99961.11;79183;1302;3011936;-60
2023/08/16 01:00:13;;;;;;;12.80;6.20;;;;;;;24.27;67.93;99961.25;77955;1301;3027266;-64
2023/08/16 01:02:40;;;;;;;13.10;7.20;;;;;;;24.08;68.39;99961.34;79263;1301;3013222;-62
2023/08/16 01:05:11;;;;;;;9.50;5.90;;;;;;;23.92;69.05;99958.29;78693;1298;3012885;-61
2023/08/16 01:07:38;;;;;;;8.30;5.90;;;;;;;23.81;69.57;99957.47;79236;1300;3012786;-62
2023/08/16 01:10:05;;;;;;;12.00;6.50;;;;;;;23.76;69.69;99953.73;79155;1300;3012092;-62
2023/08/16 01:12:57;;;;;;;7.00;5.60;;;;;;;23.66;70.00;99957.13;78014;1301;3050190;-63
2023/08/16 01:15:26;;;;;;;8.40;6.00;;;;;;;23.64;69.99;99956.11;78074;1300;3053381;-63
2023/08/16 01:17:53;;;;;;;9.50;5.60;;;;;;;23.64;69.85;99954.80;79254;1301;3011938;-62
2023/08/16 01:20:19;;;;;;;8.20;5.40;;;;;;;23.56;70.42;99957.71;79312;1299;3013252;-63
2023/08/16 01:23:06;;;;;;;10.80;5.70;;;;;;;23.46;70.74;99954.75;78001;1301;3056551;-61
2023/08/16 01:25:56;;;;;;;8.10;3.80;;;;;;;23.47;71.07;99957.67;78033;1301;3049574;-62
2023/08/16 01:28:24;;;;;;;7.20;4.40;;;;;;;24.14;68.70;99955.50;78009;1301;3053068;-61
2023/08/16 01:30:50;;;;;;;5.70;4.60;;;;;;;24.43;67.55;99955.71;79229;1298;3013136;-62
2023/08/16 01:33:17;;;;;;;8.40;4.80;;;;;;;24.46;66.73;99951.05;79234;1301;3013031;-63
2023/08/16 01:35:46;;;;;;;7.40;5.00;;;;;;;24.37;66.80;99948.32;77989;1299;3068115;-61
2023/08/16 01:38:15;;;;;;;7.40;4.60;;;;;;;24.17;67.47;99947.10;79280;1298;3013331;-60
2023/08/16 01:40:54;;;;;;;7.40;4.80;;;;;;;24.10;67.44;99944.73;78666;1301;3011879;-62
2023/08/16 01:43:22;;;;;;;5.80;4.90;;;;;;;23.99;67.84;99942.70;78041;1298;3049376;-62
2023/08/16 01:45:50;;;;;;;7.10;4.70;;;;;;;23.93;68.06;99941.88;79383;1299;3013757;-62
2023/08/16 01:48:16;;;;;;;8.00;4.80;;;;;;;23.83;68.49;99944.92;79250;1299;3011608;-61
2023/08/16 01:50:45;;;;;;;5.70;4.70;;;;;;;23.77;68.78;99942.70;78074;1298;3052138;-61
2023/08/16 01:53:11;;;;;;;6.40;4.40;;;;;;;23.73;68.89;99940.83;79152;1304;3013446;-65
2023/08/16 01:55:38;;;;;;;9.50;5.90;;;;;;;23.71;68.73;99935.50;79128;1299;3011954;-59
2023/08/16 01:58:06;;;;;;;7.70;5.20;;;;;;;23.69;68.95;99931.54;77943;1303;3027975;-61
2023/08/16 02:00:32;;;;;;;6.80;5.20;;;;;;;23.66;68.90;99926.17;79223;1301;3018608;-63
2023/08/16 02:02:59;;;;;;;11.90;5.30;;;;;;;23.61;69.13;99927.77;79230;1301;3013176;-63
2023/08/16 02:05:27;;;;;;;5.20;3.30;;;;;;;23.59;69.28;99929.12;78034;1301;3026446;-60
2023/08/16 02:07:53;;;;;;;5.90;4.00;;;;;;;24.09;68.37;99930.81;79188;1301;3013396;-63
2023/08/16 02:10:20;;;;;;;6.80;5.00;;;;;;;24.62;66.38;99928.59;79227;1301;3011665;-61
2023/08/16 02:12:48;;;;;;;7.10;5.10;;;;;;;24.79;65.92;99930.95;78076;1301;3029052;-62
2023/08/16 02:15:15;;;;;;;11.40;5.00;;;;;;;24.66;65.69;99930.63;79268;1301;3013544;-60
2023/08/16 02:17:42;;;;;;;7.40;5.20;;;;;;;24.50;66.05;99928.77;79296;1301;3011767;-62
2023/08/16 02:20:12;;;;;;;6.60;5.30;;;;;;;24.36;66.38;99932.85;78112;1296;3052328;-61
2023/08/16 02:22:39;;;;;;;13.00;5.90;;;;;;;24.20;66.79;99932.24;79349;1297;3012993;-62
2023/08/16 02:25:06;;;;;;;10.50;5.50;;;;;;;24.05;67.20;99931.60;79181;1296;3011774;-62
2023/08/16 02:27:34;;;;;;;10.70;6.10;;;;;;;23.92;67.94;99929.09;78036;1300;3049136;-60
2023/08/16 02:30:02;;;;;;;9.30;6.50;;;;;;;23.80;68.34;99931.71;79241;1296;3013901;-60
2023/08/16 02:32:29;;;;;;;8.60;5.50;;;;;;;23.66;69.05;99934.02;79237;1301;3011760;-63
2023/08/16 02:34:56;;;;;;;10.20;6.30;;;;;;;23.58;69.47;99932.73;77997;1300;3052584;-61
2023/08/16 02:37:24;;;;;;;14.50;7.60;;;;;;;23.50;69.83;99936.86;79208;1300;3018759;-61
2023/08/16 02:39:51;;;;;;;11.90;6.60;;;;;;;23.34;70.84;99936.73;79341;1295;3011480;-60
2023/08/16 02:42:19;;;;;;;5.80;4.10;;;;;;;23.28;71.39;99938.65;78098;1300;3049618;-62
2023/08/16 02:44:47;;;;;;;7.60;4.50;;;;;;;23.78;69.98;99934.30;79290;1302;3013122;-62
2023/08/16 02:47:14;;;;;;;8.80;5.60;;;;;;;24.20;68.34;99934.58;79298;1301;3013073;-61
2023/08/16 02:49:42;;;;;;;10.80;6.10;;;;;;;24.16;68.17;99933.89;78039;1309;3052630;-62
2023/08/16 02:52:09;;;;;;;10.10;5.30;;;;;;;24.05;68.47;99935.05;79275;1300;3018843;-62
2023/08/16 02:54:35;;;;;;;7.90;5.60;;;;;;;23.91;68.96;99932.64;79336;1300;3013143;-60
2023/08/16 02:57:03;;;;;;;9.50;6.20;;;;;;;23.74;69.62;99935.83;78083;1301;3028925;-60
2023/08/16 02:59:46;;;;;;;8.40;5.90;;;;;;;23.55;70.43;99935.73;79427;1295;3014086;-61
2023/08/16 03:02:14;;;;;;;9.10;6.30;;;;;;;23.43;71.19;99935.70;78030;1300;3052949;-61
2023/08/16 03:04:41;;;;;;;9.40;6.40;;;;;;;23.30;71.73;99935.05;79261;1295;3012891;-62
2023/08/16 03:07:11;;;;;;;7.40;6.10;;;;;;;23.22;72.05;99938.08;79216;1301;3011819;-63
2023/08/16 03:09:39;;;;;;;7.40;4.50;;;;;;;23.19;72.53;99942.99;78023;1298;3057101;-62
2023/08/16 03:12:06;;;;;;;7.10;4.60;;;;;;;23.64;71.24;99942.63;79318;1296;3014901;-63
2023/08/16 03:14:33;;;;;;;8.20;5.50;;;;;;;24.09;69.45;99940.70;79363;1301;3011762;-61
2023/08/16 03:17:01;;;;;;;7.60;5.40;;;;;;;24.14;68.98;99941.51;78247;1301;3053105;-62
2023/08/16 03:19:28;;;;;;;14.50;5.80;;;;;;;23.93;69.60;99942.93;79445;1298;3012914;-63
2023/08/16 03:21:58;;;;;;;10.90;6.50;;;;;;;23.79;70.13;99942.88;79336;1296;3013825;-64
2023/08/16 03:24:26;;;;;;;10.20;6.70;;;;;;;23.68;70.45;99947.06;78284;1300;3056677;-63
2023/08/16 03:26:53;;;;;;;8.50;6.70;;;;;;;23.57;71.14;99947.55;79294;1295;3020399;-61
2023/08/16 03:29:20;;;;;;;14.80;7.10;;;;;;;23.51;71.19;99949.98;79289;1301;3012897;-62
2023/08/16 03:31:48;;;;;;;14.10;7.40;;;;;;;23.40;71.76;99949.52;78135;1301;3024991;-65
2023/08/16 03:34:15;;;;;;;14.10;7.20;;;;;;;23.26;72.70;99949.48;79389;1300;3013449;-64
2023/08/16 03:36:43;;;;;;;13.90;5.70;;;;;;;23.22;73.00;99952.52;79270;1301;3011875;-63
2023/08/16 03:39:11;;;;;;;9.60;6.30;;;;;;;23.62;72.05;99953.43;78057;1295;3055904;-61
2023/08/16 03:41:38;;;;;;;12.30;7.30;;;;;;;23.99;70.40;99948.40;79558;1295;3013929;-63
2023/08/16 03:44:06;;;;;;;14.00;7.90;;;;;;;24.03;70.25;99948.82;79241;1295;3013012;-61
2023/08/16 03:46:34;;;;;;;15.90;9.30;;;;;;;24.07;70.02;99947.29;78190;1301;3051523;-61
2023/08/16 03:49:01;;;;;;;13.20;8.70;;;;;;;24.02;70.15;99945.34;79277;1297;3012846;-62
2023/08/16 03:51:27;;;;;;;16.30;8.90;;;;;;;23.94;70.17;99943.68;79379;1295;3011516;-62
2023/08/16 03:53:55;;;;;;;11.90;8.70;;;;;;;23.90;70.22;99947.19;78164;1295;3028066;-62
2023/08/16 03:56:22;;;;;;;15.40;9.50;;;;;;;23.84;70.54;99950.02;79437;1295;3012662;-63
2023/08/16 03:58:48;;;;;;;14.70;9.00;;;;;;;23.75;71.13;99955.21;79417;1295;3011928;-64
2023/08/16 04:01:16;;;;;;;16.60;9.10;;;;;;;23.70;71.36;99954.77;78031;1301;3028139;-62
2023/08/16 04:03:43;;;;;;;10.90;6.50;;;;;;;23.55;72.69;99955.43;79248;1301;3021368;-62
2023/08/16 04:06:11;;;;;;;16.70;7.70;;;;;;;24.09;71.22;99956.60;79246;1296;3011951;-64
2023/08/16 04:08:39;;;;;;;13.00;7.70;;;;;;;24.45;69.50;99954.20;78100;1300;3055906;-66
2023/08/16 04:11:06;;;;;;;11.70;8.10;;;;;;;24.44;69.30;99959.67;79327;1301;3018792;-67
2023/08/16 04:13:33;;;;;;;16.60;8.90;;;;;;;24.37;69.68;99954.17;79451;1295;3013054;-62
2023/08/16 04:16:01;;;;;;;16.40;8.60;;;;;;;24.29;69.74;99954.40;78093;1298;3026474;-63
2023/08/16 04:18:28;;;;;;;16.20;8.70;;;;;;;24.17;70.27;99954.86;79398;1298;3018574;-64
2023/08/16 04:20:55;;;;;;;17.00;10.20;;;;;;;24.01;70.83;99952.14;79442;1295;3011581;-64
2023/08/16 04:23:23;;;;;;;19.00;10.00;;;;;;;23.92;71.06;99958.23;78227;1300;3057058;-62
2023/08/16 04:25:50;;;;;;;19.10;10.20;;;;;;;23.84;71.56;99963.23;79342;1300;3013160;-62
2023/08/16 04:28:17;;;;;;;16.40;9.90;;;;;;;23.80;71.90;99961.45;79211;1295;3011564;-64
2023/08/16 04:30:46;;;;;;;15.50;7.60;;;;;;;23.83;71.83;99965.35;78121;1299;3024905;-62
2023/08/16 04:33:12;;;;;;;14.60;8.80;;;;;;;24.37;70.50;99958.11;79325;1301;3011732;-61
2023/08/16 04:35:39;;;;;;;17.50;9.70;;;;;;;24.85;68.72;99957.67;79244;1299;3011169;-64
2023/08/16 04:38:08;;;;;;;18.60;10.80;;;;;;;25.00;67.86;99959.38;77960;1300;3025701;-63
2023/08/16 04:40:36;;;;;;;17.30;10.40;;;;;;;24.91;67.86;99960.76;79332;1295;3013207;-62
2023/08/16 04:43:03;;;;;;;26.60;12.40;;;;;;;24.79;68.14;99964.30;79451;1301;3011692;-63
2023/08/16 04:45:33;;;;;;;22.00;11.50;;;;;;;24.67;68.68;99961.49;78005;1300;3052011;-62
2023/08/16 04:47:59;;;;;;;23.00;12.30;;;;;;;24.62;68.68;99962.16;79244;1300;3013451;-62
2023/08/16 04:50:26;;;;;;;18.80;11.60;;;;;;;24.60;68.75;99959.67;79467;1299;3011752;-62
2023/08/16 04:52:54;;;;;;;18.10;11.40;;;;;;;24.59;68.79;99962.18;78155;1295;3026879;-61
2023/08/16 04:55:24;;;;;;;19.70;11.10;;;;;;;24.57;69.45;99963.83;79442;1299;3011683;-61
2023/08/16 04:57:53;;;;;;;16.10;9.80;;;;;;;24.53;69.22;99967.31;78727;1301;3011601;-61
2023/08/16 05:00:21;;;;;;;14.20;9.00;;;;;;;24.52;68.81;99961.94;79296;1301;3013608;-61
2023/08/16 05:02:55;;;;;;;11.00;8.40;;;;;;;24.53;68.44;99967.71;78014;1296;3051884;-63
2023/08/16 05:05:23;;;;;;;17.40;8.00;;;;;;;24.54;68.14;99967.87;79306;1295;3012832;-63
2023/08/16 05:07:50;;;;;;;13.30;8.30;;;;;;;24.55;67.54;99968.64;79393;1295;3012134;-62
2023/08/16 05:10:18;;;;;;;16.60;8.20;;;;;;;24.53;67.66;99967.34;78027;1295;3049699;-62
2023/08/16 05:12:45;;;;;;;15.90;8.70;;;;;;;24.54;67.47;99967.52;79342;1296;3013976;-62
2023/08/16 05:15:12;;;;;;;11.90;7.60;;;;;;;24.58;67.57;99968.49;79287;1295;3013665;-64
2023/08/16 05:17:40;;;;;;;15.10;7.60;;;;;;;24.69;66.95;99967.58;78190;1301;3026453;-62
2023/08/16 05:20:07;;;;;;;15.10;7.90;;;;;;;24.75;67.06;99965.63;79419;1300;3013374;-64
2023/08/16 05:22:34;;;;;;;14.70;8.20;;;;;;;24.80;67.30;99971.46;79374;1295;3011698;-64
2023/08/16 05:25:02;;;;;;;13.90;9.00;;;;;;;24.81;67.35;99972.24;78065;1301;3049282;-63
2023/08/16 05:27:29;;;;;;;20.60;9.50;;;;;;;24.87;66.95;99967.90;79470;1296;3020546;-64
2023/08/16 05:29:55;;;;;;;15.00;9.40;;;;;;;24.88;67.22;99968.59;79610;1295;3013449;-64
2023/08/16 05:32:23;;;;;;;16.40;9.00;;;;;;;24.91;67.36;99972.71;78040;1300;3026288;-63
2023/08/16 05:34:53;;;;;;;14.80;9.40;;;;;;;24.99;67.07;99972.59;79274;1295;3019363;-65
2023/08/16 05:37:22;;;;;;;14.20;8.80;;;;;;;25.05;67.04;99971.17;78754;1301;3011864;-64
2023/08/16 05:39:49;;;;;;;19.10;8.60;;;;;;;25.12;66.49;99972.48;79211;1295;3012931;-65
2023/08/16 05:42:15;;;;;;;15.90;9.50;;;;;;;25.21;65.88;99969.39;79174;1300;3011795;-64
2023/08/16 05:44:43;;;;;;;15.50;9.30;;;;;;;25.30;65.41;99971.05;78030;1296;3025982;-62
2023/08/16 05:47:09;;;;;;;13.10;8.90;;;;;;;25.38;64.55;99968.47;79439;1301;3018419;-64
2023/08/16 05:49:36;;;;;;;17.40;9.20;;;;;;;25.44;64.27;99971.16;79349;1295;3011650;-62
2023/08/16 05:52:04;;;;;;;15.60;9.10;;;;;;;25.50;64.04;99972.20;78002;1296;3028594;-61
2023/08/16 05:54:30;;;;;;;14.20;7.90;;;;;;;25.55;63.30;99968.50;79254;1300;3013729;-65
2023/08/16 05:56:57;;;;;;;13.90;7.30;;;;;;;25.62;62.15;99967.18;79305;1301;3011855;-62
2023/08/16 05:59:25;;;;;;;15.80;7.60;;;;;;;25.69;60.52;99970.70;77968;1301;3027994;-64
2023/08/16 06:01:51;;;;;;;13.70;8.00;;;;;;;25.76;60.62;99970.94;79362;1301;3012971;-62
2023/08/16 06:04:18;;;;;;;11.30;7.30;;;;;;;25.83;60.09;99970.70;79391;1297;3011576;-62
2023/08/16 06:06:46;;;;;;;13.90;6.70;;;;;;;25.92;59.32;99970.52;78190;1301;3026738;-63
2023/08/16 06:09:12;;;;;;;16.60;6.10;;;;;;;26.02;58.63;99971.48;79442;1300;3012839;-64
2023/08/16 06:11:39;;;;;;;8.70;5.70;;;;;;;26.12;58.43;99972.15;79413;1299;3011780;-61
2023/08/16 06:14:07;;;;;;;12.60;6.10;;;;;;;26.20;57.63;99967.19;78190;1296;3026448;-60
2023/08/16 06:16:34;;;;;;;12.50;6.30;;;;;;;26.28;57.37;99966.25;79329;1300;3013564;-62
2023/08/16 06:19:01;;;;;;;15.40;6.80;;;;;;;26.37;57.00;99970.06;79288;1297;3011645;-63
2023/08/16 06:21:29;;;;;;;14.50;6.80;;;;;;;26.45;56.91;99971.80;78083;1297;3053416;-62
2023/08/16 06:23:56;;;;;;;16.00;8.00;;;;;;;26.49;56.54;99969.20;79358;1295;3019081;-61
2023/08/16 06:26:22;;;;;;;19.20;11.30;;;;;;;26.50;57.76;99973.16;79500;1300;3013511;-62
2023/08/16 06:28:51;;;;;;;26.80;12.30;;;;;;;26.49;58.27;99974.59;78253;1295;3028662;-60
2023/08/16 06:31:18;;;;;;;24.10;12.70;;;;;;;26.47;58.75;99972.11;79313;1300;3014044;-61
2023/08/16 06:33:45;;;;;;;21.60;12.20;;;;;;;26.48;58.72;99966.64;79284;1301;3011926;-62
2023/08/16 06:36:13;;;;;;;18.20;11.20;;;;;;;26.48;58.77;99970.55;78192;1295;3050226;-62
2023/08/16 06:38:40;;;;;;;25.10;11.60;;;;;;;26.46;58.46;99967.59;79321;1295;3013061;-62
2023/08/16 06:41:07;;;;;;;19.70;9.20;;;;;;;26.47;58.63;99968.75;79212;1295;3011678;-63
2023/08/16 06:43:35;;;;;;;21.40;9.40;;;;;;;26.47;58.10;99968.21;78088;1298;3050254;-66
2023/08/16 06:46:02;;;;;;;18.40;7.90;;;;;;;26.54;58.19;99970.05;79350;1301;3013374;-66
2023/08/16 06:48:28;;;;;;;14.40;7.50;;;;;;;26.51;58.03;99972.40;79368;1298;3011680;-64
2023/08/16 06:50:56;;;;;;;13.20;7.60;;;;;;;26.47;58.54;99972.66;78043;1296;3026509;-61
2023/08/16 06:53:24;;;;;;;9.60;6.30;;;;;;;26.51;58.46;99970.34;79256;1295;3013294;-62
2023/08/16 06:55:53;;;;;;;11.50;6.50;;;;;;;26.56;57.31;99968.14;79263;1295;3011895;-64
2023/08/16 06:58:21;;;;;;;10.40;6.80;;;;;;;26.61;56.89;99966.10;78113;1295;3049729;-65
2023/08/16 07:00:49;;;;;;;13.80;7.00;;;;;;;26.59;57.43;99959.83;79486;1299;3013298;-64
2023/08/16 07:03:19;;;;;;;14.20;6.80;;;;;;;26.65;58.15;99959.31;79255;1300;3013016;-62
2023/08/16 07:05:47;;;;;;;23.80;7.00;;;;;;;26.76;57.99;99958.91;78102;1296;3051284;-62
2023/08/16 07:08:13;;;;;;;9.90;5.70;;;;;;;26.88;57.41;99955.20;79349;1300;3013126;-64
2023/08/16 07:10:42;;;;;;;13.60;5.70;;;;;;;26.96;56.13;99951.85;79353;1300;3013512;-64
2023/08/16 07:13:10;;;;;;;9.00;6.10;;;;;;;26.97;55.48;99953.41;78178;1296;3048795;-63
2023/08/16 07:15:36;;;;;;;10.80;5.60;;;;;;;26.97;55.90;99954.06;79548;1298;3012936;-64
2023/08/16 07:18:04;;;;;;;7.00;5.80;;;;;;;27.04;55.10;99958.05;79354;1295;3011635;-62
2023/08/16 07:20:32;;;;;;;14.90;6.50;;;;;;;27.12;56.12;99953.70;78084;1296;3052161;-61
2023/08/16 07:22:58;;;;;;;12.60;7.30;;;;;;;27.19;56.67;99950.98;79589;1295;3011915;-65
2023/08/16 07:25:28;;;;;;;19.10;7.40;;;;;;;27.12;56.89;99955.29;79365;1298;3011556;-63
2023/08/16 07:27:56;;;;;;;11.10;7.00;;;;;;;27.00;57.16;99955.59;78094;1298;3049733;-62
2023/08/16 07:30:22;;;;;;;13.60;6.70;;;;;;;27.01;57.40;99952.54;79474;1296;3012578;-62
2023/08/16 07:32:49;;;;;;;13.40;7.10;;;;;;;27.08;56.98;99953.95;79284;1298;3011561;-65
2023/08/16 07:35:17;;;;;;;15.30;6.80;;;;;;;27.12;56.56;99949.56;78242;1298;3028681;-62
2023/08/16 07:37:44;;;;;;;11.60;6.40;;;;;;;27.28;56.37;99949.70;79377;1296;3013203;-64
2023/08/16 07:40:11;;;;;;;16.00;6.10;;;;;;;27.35;55.38;99945.30;79415;1298;3011583;-62
2023/08/16 07:42:39;;;;;;;10.20;6.20;;;;;;;27.49;55.13;99933.89;78121;1298;3028551;-64
2023/08/16 07:45:06;;;;;;;5.30;4.10;;;;;;;27.56;53.73;99937.15;79310;1298;3013530;-62
2023/08/16 07:47:33;;;;;;;6.70;6.00;;;;;;;27.63;51.67;99937.64;79495;1298;3011626;-63
2023/08/16 07:50:01;;;;;;;7.60;5.40;;;;;;;27.53;52.17;99937.91;78379;1296;3026763;-61
2023/08/16 07:52:27;;;;;;;9.70;5.90;;;;;;;27.46;51.78;99936.46;79383;1295;3012934;-63
2023/08/16 07:54:55;;;;;;;8.60;5.50;;;;;;;27.34;52.69;99938.97;79426;1297;3011627;-62
2023/08/16 07:57:23;;;;;;;5.90;4.10;;;;;;;27.40;50.43;99941.06;78243;1298;3049209;-63
2023/08/16 07:59:49;;;;;;;7.80;4.10;;;;;;;27.41;47.61;99934.30;79311;1299;3019213;-63
2023/08/16 08:02:16;;;;;;;7.00;4.40;;;;;;;27.51;48.51;99927.67;79265;1300;3013528;-64
2023/08/16 08:04:45;;;;;;;4.20;3.60;;;;;;;27.64;48.17;99932.13;78057;1295;3028187;-62
2023/08/16 08:07:11;;;;;;;4.10;3.40;;;;;;;27.80;46.53;99928.40;79286;1295;3013540;-63
2023/08/16 08:09:38;;;;;;;6.90;3.10;;;;;;;27.99;44.05;99927.73;79236;1295;3012398;-62
2023/08/16 08:12:06;;;;;;;3.10;2.60;;;;;;;28.13;41.38;99930.67;78082;1299;3050031;-62
2023/08/16 08:14:33;;;;;;;5.20;2.60;;;;;;;28.10;40.45;99929.66;79476;1301;3013522;-63
2023/08/16 08:16:59;;;;;;;8.00;2.60;;;;;;;28.24;40.07;99925.02;79341;1295;3013716;-63
2023/08/16 08:19:27;;;;;;;3.80;2.30;;;;;;;28.46;40.41;99924.86;78051;1295;3053192;-61
2023/08/16 08:21:54;;;;;;;6.00;3.10;;;;;;;28.56;39.55;99922.42;79272;1295;3020639;-62
2023/08/16 08:24:20;;;;;;;5.10;3.00;;;;;;;28.68;39.80;99918.56;79282;1301;3011645;-62
2023/08/16 08:26:48;;;;;;;6.20;2.90;;;;;;;28.81;39.79;99913.13;78051;1300;3025885;-62
2023/08/16 08:29:15;;;;;;;4.30;3.00;;;;;;;28.94;39.72;99910.02;79242;1301;3012813;-62
2023/08/16 08:31:42;;;;;;;3.10;2.40;;;;;;;29.05;38.86;99911.29;79415;1298;3011769;-61
2023/08/16 08:34:10;;;;;;;7.80;2.60;;;;;;;29.13;36.98;99909.48;78122;1295;3027982;-62
2023/08/16 08:36:37;;;;;;;3.00;2.00;;;;;;;29.22;35.73;99907.80;79453;1296;3013154;-64
2023/08/16 08:39:04;;;;;;;4.90;2.60;;;;;;;29.25;35.90;99908.08;79244;1295;3011632;-62
2023/08/16 08:41:32;;;;;;;8.50;2.50;;;;;;;29.22;36.66;99909.60;78108;1300;3050304;-62
2023/08/16 08:43:59;;;;;;;8.70;2.70;;;;;;;29.26;37.30;99907.74;79561;1300;3013841;-62
2023/08/16 08:46:28;;;;;;;3.40;2.50;;;;;;;29.32;36.75;99900.65;79472;1297;3011695;-61
2023/08/16 08:48:59;;;;;;;4.20;2.60;;;;;;;29.42;36.63;99898.83;78120;1300;3050908;-63
2023/08/16 08:51:28;;;;;;;3.30;2.40;;;;;;;29.42;36.49;99893.96;79214;1295;3012971;-61
2023/08/16 08:53:56;;;;;;;6.60;2.70;;;;;;;29.49;36.38;99894.75;78387;1295;3048408;-62
2023/08/16 08:56:23;;;;;;;6.30;2.50;;;;;;;29.54;36.10;99894.72;79391;1298;3013594;-62
2023/08/16 08:58:49;;;;;;;5.10;2.50;;;;;;;29.63;35.63;99896.60;80452;1295;3013165;-61
2023/08/16 09:01:17;;;;;;;5.30;2.50;;;;;;;29.69;35.13;99893.56;78180;1303;3026429;-60
2023/08/16 09:03:45;;;;;;;4.90;2.60;;;;;;;29.82;35.14;99897.21;79644;1298;3012699;-61
2023/08/16 09:06:12;;;;;;;4.50;2.40;;;;;;;29.70;35.37;99896.73;79521;1295;3011308;-63
2023/08/16 09:08:41;;;;;;;4.20;2.70;;;;;;;29.88;36.10;99891.02;78153;1301;3050174;-63
2023/08/16 09:11:07;;;;;;;7.10;2.80;;;;;;;29.91;36.15;99894.41;79295;1295;3013372;-63
2023/08/16 09:13:34;;;;;;;6.20;3.00;;;;;;;29.82;35.98;99894.10;79676;1300;3011640;-61
2023/08/16 09:16:02;;;;;;;4.40;3.00;;;;;;;30.00;36.23;99892.87;78567;1300;3052930;-61
2023/08/16 09:18:29;;;;;;;6.20;2.80;;;;;;;30.11;35.92;99887.69;79522;1298;3013607;-62
2023/08/16 09:20:58;;;;;;;5.20;2.60;;;;;;;30.21;35.43;99889.36;79615;1295;3011760;-61
2023/08/16 09:23:26;;;;;;;5.10;2.70;;;;;;;30.36;35.55;99893.08;78440;1301;3049493;-61
2023/08/16 09:25:52;;;;;;;3.30;2.70;;;;;;;30.32;34.42;99894.23;79496;1295;3021211;-60
2023/08/16 09:28:20;;;;;;;5.10;2.90;;;;;;;30.24;34.89;99892.94;79382;1298;3011683;-63
2023/08/16 09:30:48;;;;;;;3.80;3.00;;;;;;;30.26;35.28;99887.90;78280;1301;3052340;-64
2023/08/16 09:33:17;;;;;;;4.10;2.90;;;;;;;30.37;35.68;99887.48;79445;1300;3012910;-63
2023/08/16 09:35:49;;;;;;;8.00;2.80;;;;;;;30.31;35.78;99891.63;79400;1295;3013238;-61
2023/08/16 09:38:20;;;;;;;4.20;2.90;;;;;;;30.52;35.51;99890.17;78226;1295;3049236;-63
2023/08/16 09:40:49;;;;;;;5.70;3.10;;;;;;;30.52;35.31;99886.32;79353;1298;3011344;-63
2023/08/16 09:43:18;;;;;;;6.00;3.00;;;;;;;30.63;35.58;99885.85;78392;1301;3050042;-62
2023/08/16 09:45:49;;;;;;;5.10;3.30;;;;;;;30.76;35.76;99883.75;79420;1300;3013212;-62
2023/08/16 09:48:18;;;;;;;8.50;2.90;;;;;;;30.88;35.08;99887.82;78202;1295;3069119;-62
2023/08/16 09:50:45;;;;;;;5.70;3.40;;;;;;;30.90;35.85;99880.23;79453;1301;3012902;-63
2023/08/16 09:53:12;;;;;;;5.10;3.50;;;;;;;31.02;35.69;99880.63;79441;1295;3011570;-61
2023/08/16 09:55:41;;;;;;;4.60;2.80;;;;;;;30.98;34.91;99874.89;78359;1295;3053281;-61
2023/08/16 09:58:07;;;;;;;3.60;3.10;;;;;;;30.90;34.95;99872.17;79540;1301;3013157;-61
2023/08/16 10:00:34;;;;;;;4.70;3.50;;;;;;;31.02;35.61;99871.15;79363;1300;3013175;-62
2023/08/16 10:03:03;;;;;;;3.60;3.00;;;;;;;31.10;35.05;99874.16;78255;1300;3069711;-61
2023/08/16 10:05:30;;;;;;;5.40;3.40;;;;;;;31.15;34.77;99876.55;79586;1295;3012800;-62
2023/08/16 10:08:00;;;;;;;6.30;3.10;;;;;;;31.15;35.12;99872.63;79387;1295;3011888;-61
2023/08/16 10:10:30;;;;;;;6.40;3.40;;;;;;;31.23;35.48;99870.77;78174;1295;3053003;-61
2023/08/16 10:12:56;;;;;;;6.20;3.30;;;;;;;31.32;35.69;99867.38;79388;1295;3013600;-62
2023/08/16 10:15:23;;;;;;;9.00;3.80;;;;;;;31.33;35.28;99864.48;79541;1298;3013068;-63
2023/08/16 10:17:51;;;;;;;3.90;3.40;;;;;;;31.35;35.26;99867.08;78164;1295;3069469;-61
2023/08/16 10:20:25;;;;;;;7.00;3.80;;;;;;;31.22;35.30;99870.48;79477;1298;3012887;-59
2023/08/16 10:23:00;;;;;;;5.40;3.90;;;;;;;30.99;34.96;99866.39;78206;1297;3050291;-62
2023/08/16 10:25:47;;;;;;;6.00;3.80;;;;;;;31.08;34.87;99861.39;78825;1300;3011791;-61
2023/08/16 10:28:15;;;;;;;8.40;3.60;;;;;;;31.19;34.85;99865.84;78191;1299;3053182;-61
2023/08/16 10:30:43;;;;;;;6.70;4.80;;;;;;;31.18;35.28;99861.34;79354;1301;3013749;-62
2023/08/16 10:33:15;;;;;;;6.90;4.70;;;;;;;31.36;34.79;99858.84;79523;1298;3013562;-61
2023/08/16 10:35:43;;;;;;;6.10;5.40;;;;;;;31.25;33.52;99856.04;78093;1295;3069338;-62
2023/08/16 10:38:10;;;;;;;8.50;4.90;;;;;;;31.17;34.35;99860.26;79717;1296;3013016;-61
2023/08/16 10:40:37;;;;;;;4.40;3.70;;;;;;;30.89;35.09;99864.75;79492;1298;3011690;-62
2023/08/16 10:43:06;;;;;;;6.10;3.80;;;;;;;30.89;35.58;99859.45;78406;1299;3028915;-61
2023/08/16 10:45:36;;;;;;;5.50;4.20;;;;;;;30.94;35.31;99859.09;79759;1301;3013468;-61
2023/08/16 10:48:11;;;;;;;6.30;4.00;;;;;;;31.21;35.63;99852.31;78310;1300;3052242;-63
2023/08/16 10:50:41;;;;;;;5.60;3.60;;;;;;;31.55;35.21;99841.83;79018;1300;3013463;-63
2023/08/16 10:53:08;;;;;;;5.60;4.00;;;;;;;31.51;34.58;99847.61;79390;1296;3014388;-61
2023/08/16 10:55:35;;;;;;;6.50;3.60;;;;;;;31.32;34.67;99849.47;79374;1298;3011936;-61
2023/08/16 10:58:03;;;;;;;8.60;3.90;;;;;;;31.33;34.71;99849.13;78305;1298;3048872;-61
2023/08/16 11:00:34;;;;;;;6.20;3.80;;;;;;;31.35;34.52;99849.19;79503;1295;3013186;-62
2023/08/16 11:03:04;;;;;;;7.50;4.00;;;;;;;31.35;34.59;99849.58;78391;1301;3052501;-61
2023/08/16 11:05:33;;;;;;;7.80;4.50;;;;;;;31.54;34.49;99839.77;79490;1300;3013144;-62
2023/08/16 11:08:01;;;;;;;5.50;4.20;;;;;;;31.75;35.07;99841.23;78158;1295;3069470;-62
2023/08/16 11:10:36;;;;;;;7.40;4.40;;;;;;;31.79;35.18;99841.08;79320;1295;3013596;-62
2023/08/16 11:13:09;;;;;;;3.70;3.10;;;;;;;31.81;34.42;99838.88;78352;1295;3049373;-62
2023/08/16 11:15:36;;;;;;;6.30;3.40;;;;;;;31.84;34.53;99835.38;79384;1295;3011652;-63